createdAt,value
2018-03-31T00:00:53.136Z,4.67
2018-03-31T00:03:20.093Z,5.20
2018-03-31T00:05:47.011Z,4.67
2018-03-31T00:08:13.955Z,4.97
2018-03-31T00:10:40.869Z,4.40
2018-03-31T00:13:07.823Z,4.82
2018-03-31T00:15:35.029Z,4.50
2018-03-31T00:18:02.177Z,4.20
2018-03-31T00:20:29.108Z,5.00
2018-03-31T00:22:56.169Z,4.40
2018-03-31T00:25:23.318Z,5.43
2018-03-31T00:27:50.462Z,4.28
2018-03-31T00:30:17.412Z,4.93
2018-03-31T00:32:44.352Z,4.80
2018-03-31T00:35:11.617Z,4.50
2018-03-31T00:37:38.550Z,4.65
2018-03-31T00:40:05.481Z,5.50
2018-03-31T00:42:32.442Z,4.27
2018-03-31T00:44:59.371Z,4.30
2018-03-31T00:47:26.298Z,5.60
2018-03-31T00:49:53.288Z,5.23
2018-03-31T00:52:20.215Z,4.90
2018-03-31T00:54:47.171Z,4.78
2018-03-31T00:57:14.407Z,5.10
2018-03-31T00:59:41.554Z,5.10
2018-03-31T01:02:08.707Z,4.40
2018-03-31T01:04:35.699Z,5.55
2018-03-31T01:07:02.709Z,4.30
2018-03-31T01:09:29.850Z,4.50
2018-03-31T01:11:56.792Z,5.18
2018-03-31T01:14:23.725Z,5.20
2018-03-31T01:16:50.681Z,6.47
2018-03-31T01:19:17.775Z,5.55
2018-03-31T01:21:44.987Z,5.57
2018-03-31T01:24:11.926Z,6.15
2018-03-31T01:26:38.979Z,5.30
2018-03-31T01:29:05.925Z,5.18
2018-03-31T01:31:32.963Z,5.60
2018-03-31T01:34:00.116Z,5.53
2018-03-31T01:36:27.060Z,5.03
2018-03-31T01:38:53.992Z,5.57
2018-03-31T01:41:20.944Z,5.12
2018-03-31T01:43:48.095Z,5.25
2018-03-31T01:46:15.222Z,5.70
2018-03-31T01:48:42.144Z,5.03
2018-03-31T01:51:09.226Z,5.70
2018-03-31T01:53:36.389Z,5.55
2018-03-31T01:56:03.344Z,5.32
2018-03-31T01:58:30.273Z,5.32
2018-03-31T02:00:57.226Z,5.00
2018-03-31T02:03:24.166Z,5.93
2018-03-31T02:05:51.108Z,5.62
2018-03-31T02:08:18.200Z,5.43
2018-03-31T02:10:46.080Z,5.75
2018-03-31T02:13:13.272Z,5.87
2018-03-31T02:15:40.267Z,6.07
2018-03-31T02:18:07.982Z,5.78
2018-03-31T02:20:34.910Z,6.07
2018-03-31T02:23:01.855Z,5.65
2018-03-31T02:25:28.791Z,5.20
2018-03-31T02:27:55.791Z,5.85
2018-03-31T02:30:23.006Z,5.87
2018-03-31T02:32:50.026Z,6.70
2018-03-31T02:35:16.951Z,5.53
2018-03-31T02:37:44.022Z,6.30
2018-03-31T02:40:10.992Z,5.37
2018-03-31T02:42:38.114Z,6.70
2018-03-31T02:45:05.285Z,5.53
2018-03-31T02:47:32.307Z,6.43
2018-03-31T02:49:59.276Z,5.90
2018-03-31T02:52:26.217Z,6.32
2018-03-31T02:54:53.240Z,5.97
2018-03-31T02:57:20.434Z,6.07
2018-03-31T02:59:47.464Z,7.30
2018-03-31T03:02:14.409Z,6.10
2018-03-31T03:04:41.552Z,5.78
2018-03-31T03:07:08.719Z,5.90
2018-03-31T03:09:35.656Z,5.73
2018-03-31T03:12:02.713Z,5.90
2018-03-31T03:14:29.649Z,6.07
2018-03-31T03:16:56.579Z,6.53
2018-03-31T03:19:23.524Z,6.40
2018-03-31T03:21:56.443Z,6.20
2018-03-31T03:24:23.671Z,7.40
2018-03-31T03:26:50.813Z,5.93
2018-03-31T03:29:17.968Z,6.20
2018-03-31T03:31:45.113Z,7.00
2018-03-31T03:34:12.049Z,6.45
2018-03-31T03:36:39.103Z,6.35
2018-03-31T03:39:06.031Z,5.95
2018-03-31T03:41:33.089Z,5.30
2018-03-31T03:44:00.213Z,5.90
2018-03-31T03:46:27.148Z,6.60
2018-03-31T03:48:54.080Z,6.18
2018-03-31T03:51:21.791Z,6.80
2018-03-31T03:53:48.836Z,6.87
2018-03-31T03:56:15.771Z,6.55
2018-03-31T03:58:42.709Z,6.60
2018-03-31T04:01:09.676Z,7.28
2018-03-31T04:03:36.821Z,7.18
2018-03-31T04:06:03.760Z,7.55
2018-03-31T04:08:30.695Z,6.62
2018-03-31T04:10:57.631Z,6.80
2018-03-31T04:13:24.812Z,6.87
2018-03-31T04:15:51.947Z,7.57
2018-03-31T04:18:18.891Z,8.98
2018-03-31T04:20:45.816Z,7.55
2018-03-31T04:23:12.792Z,7.25
2018-03-31T04:25:39.717Z,7.20
2018-03-31T04:28:06.654Z,6.97
2018-03-31T04:30:33.592Z,6.50
2018-03-31T04:33:00.768Z,7.35
2018-03-31T04:35:27.923Z,9.07
2018-03-31T04:37:55.064Z,7.93
2018-03-31T04:40:22.213Z,7.55
2018-03-31T04:42:49.153Z,6.25
2018-03-31T04:45:16.203Z,6.20
2018-03-31T04:47:43.355Z,6.10
2018-03-31T04:50:10.301Z,7.15
2018-03-31T04:52:37.222Z,6.57
2018-03-31T04:55:04.186Z,7.40
2018-03-31T04:57:31.097Z,7.47
2018-03-31T04:59:58.031Z,6.85
2018-03-31T05:02:28.511Z,6.45
2018-03-31T05:04:55.588Z,7.70
2018-03-31T05:07:22.567Z,7.43
2018-03-31T05:09:50.771Z,7.40
2018-03-31T05:12:17.704Z,7.68
2018-03-31T05:14:44.640Z,10.18
2018-03-31T05:17:11.594Z,7.75
2018-03-31T05:19:38.540Z,8.45
2018-03-31T05:22:05.595Z,7.72
2018-03-31T05:24:32.524Z,9.77
2018-03-31T05:26:59.463Z,9.10
2018-03-31T05:29:26.393Z,9.98
2018-03-31T05:31:53.340Z,7.45
2018-03-31T05:34:20.416Z,8.85
2018-03-31T05:36:47.348Z,6.22
2018-03-31T05:39:14.352Z,7.10
2018-03-31T05:41:41.551Z,6.72
2018-03-31T05:44:08.706Z,10.32
2018-03-31T05:46:36.645Z,10.32
2018-03-31T05:49:03.586Z,10.98
2018-03-31T05:51:30.527Z,10.70
2018-03-31T05:53:57.483Z,10.32
2018-03-31T05:56:24.436Z,9.15
2018-03-31T05:58:51.597Z,10.30
2018-03-31T06:01:18.758Z,10.95
2018-03-31T06:03:45.703Z,10.50
2018-03-31T06:06:12.650Z,11.88
2018-03-31T06:08:39.896Z,12.82
2018-03-31T06:11:07.039Z,11.15
2018-03-31T06:13:34.857Z,14.07
2018-03-31T06:18:55.045Z,8.95
2018-03-31T06:21:22.136Z,8.43
2018-03-31T06:23:49.243Z,9.63
2018-03-31T06:26:16.168Z,8.77
2018-03-31T06:28:43.112Z,8.18
2018-03-31T06:31:10.111Z,9.05
2018-03-31T06:33:37.124Z,9.55
2018-03-31T06:36:04.831Z,9.73
2018-03-31T06:38:31.771Z,9.38
2018-03-31T06:40:59.020Z,9.10
2018-03-31T06:43:25.960Z,10.93
2018-03-31T06:45:52.895Z,10.27
2018-03-31T06:48:19.853Z,10.02
2018-03-31T06:50:47.003Z,9.50
2018-03-31T06:53:14.136Z,11.13
2018-03-31T06:55:41.304Z,9.55
2018-03-31T06:58:08.415Z,9.57
2018-03-31T07:00:35.347Z,9.27
2018-03-31T07:03:02.451Z,10.30
2018-03-31T07:05:29.388Z,9.73
2018-03-31T07:07:56.378Z,9.60
2018-03-31T07:10:23.579Z,9.47
2018-03-31T07:12:50.513Z,8.80
2018-03-31T07:15:17.440Z,8.70
2018-03-31T07:17:44.480Z,9.18
2018-03-31T07:20:11.406Z,8.70
2018-03-31T07:22:38.414Z,7.57
2018-03-31T07:25:05.351Z,8.23
2018-03-31T07:27:32.282Z,8.17
2018-03-31T07:29:59.240Z,9.37
2018-03-31T07:32:26.388Z,9.70
2018-03-31T07:34:53.320Z,8.60
2018-03-31T07:37:20.245Z,8.57
2018-03-31T07:39:47.178Z,8.73
2018-03-31T07:42:14.992Z,8.40
2018-03-31T07:44:41.947Z,7.40
2018-03-31T07:47:08.987Z,8.23
2018-03-31T07:49:35.912Z,7.10
2018-03-31T07:52:02.934Z,7.23
2018-03-31T07:54:29.824Z,8.03
2018-03-31T07:56:56.767Z,7.07
2018-03-31T07:59:23.799Z,8.00
2018-03-31T08:01:50.956Z,7.27
2018-03-31T08:04:18.101Z,6.70
2018-03-31T08:06:45.123Z,7.30
2018-03-31T08:09:12.203Z,6.53
2018-03-31T08:11:39.441Z,5.93
2018-03-31T08:14:06.389Z,5.67
2018-03-31T08:16:33.543Z,7.30
2018-03-31T08:19:00.664Z,5.77
2018-03-31T08:21:27.611Z,6.70
2018-03-31T08:23:54.682Z,5.80
2018-03-31T08:26:22.079Z,5.27
2018-03-31T08:28:49.019Z,5.77
2018-03-31T08:31:16.115Z,5.47
2018-03-31T08:33:43.287Z,5.70
2018-03-31T08:36:10.419Z,5.70
2018-03-31T08:38:37.371Z,4.63
2018-03-31T08:41:04.288Z,5.20
2018-03-31T08:43:31.228Z,5.30
2018-03-31T08:45:58.403Z,5.57
2018-03-31T08:48:25.556Z,4.93
2018-03-31T08:50:52.488Z,5.30
2018-03-31T08:53:19.422Z,6.07
2018-03-31T08:55:46.363Z,6.70
2018-03-31T08:58:13.543Z,5.30
2018-03-31T09:00:40.478Z,6.60
2018-03-31T09:03:07.499Z,5.47
2018-03-31T09:05:34.671Z,4.87
2018-03-31T09:08:01.820Z,5.23
2018-03-31T09:10:28.826Z,5.27
2018-03-31T09:12:56.524Z,5.93
2018-03-31T09:15:23.459Z,5.73
2018-03-31T09:17:50.479Z,5.67
2018-03-31T09:20:17.423Z,4.90
2018-03-31T09:22:45.783Z,5.90
2018-03-31T09:25:12.173Z,5.47
2018-03-31T09:27:39.323Z,5.23
2018-03-31T09:30:06.260Z,5.30
2018-03-31T09:32:33.191Z,5.80
2018-03-31T09:35:00.143Z,5.60
2018-03-31T09:37:27.070Z,5.30
2018-03-31T09:39:54.173Z,5.67
2018-03-31T09:42:21.063Z,5.70
2018-03-31T09:44:48.086Z,5.30
2018-03-31T09:47:15.010Z,5.67
2018-03-31T09:49:41.955Z,5.50
2018-03-31T09:52:08.964Z,5.17
2018-03-31T09:54:35.890Z,4.50
2018-03-31T09:57:02.831Z,4.97
2018-03-31T09:59:29.801Z,4.57
2018-03-31T10:01:56.731Z,4.87
2018-03-31T10:04:23.746Z,5.00
2018-03-31T10:06:50.687Z,3.80
2018-03-31T10:09:17.791Z,3.40
2018-03-31T10:11:44.725Z,3.83
2018-03-31T10:14:11.772Z,3.30
2018-03-31T10:16:38.787Z,4.10
2018-03-31T10:19:06.479Z,3.80
2018-03-31T10:21:33.588Z,3.60
2018-03-31T10:24:00.508Z,3.20
2018-03-31T10:26:27.443Z,3.13
2018-03-31T10:28:54.667Z,3.10
2018-03-31T10:31:21.824Z,2.93
2018-03-31T10:33:48.744Z,3.53
2018-03-31T10:36:15.696Z,3.40
2018-03-31T10:38:42.653Z,3.90
2018-03-31T10:41:09.648Z,3.60
2018-03-31T10:43:36.575Z,2.73
2018-03-31T10:46:03.519Z,3.20
2018-03-31T10:48:30.636Z,2.60
2018-03-31T10:50:57.563Z,2.90
2018-03-31T10:53:24.495Z,2.60
2018-03-31T10:55:51.523Z,2.27
2018-03-31T10:58:18.455Z,2.60
2018-03-31T11:00:46.147Z,2.17
2018-03-31T11:03:13.075Z,1.97
2018-03-31T11:05:40.976Z,2.63
2018-03-31T11:08:07.910Z,2.27
2018-03-31T11:10:34.843Z,2.60
2018-03-31T11:13:01.775Z,2.50
2018-03-31T11:15:28.967Z,2.10
2018-03-31T11:17:56.116Z,2.30
2018-03-31T11:20:23.273Z,2.40
2018-03-31T11:22:50.424Z,2.50
2018-03-31T11:25:17.360Z,2.70
2018-03-31T11:27:44.401Z,2.33
2018-03-31T11:30:11.372Z,2.40
2018-03-31T11:32:38.290Z,2.23
2018-03-31T11:35:05.240Z,2.33
2018-03-31T11:37:32.154Z,2.10
2018-03-31T11:39:59.227Z,2.20
2018-03-31T11:42:26.415Z,2.03
2018-03-31T11:44:53.314Z,2.00
2018-03-31T11:47:20.245Z,2.00
2018-03-31T11:49:47.163Z,1.83
2018-03-31T11:52:14.099Z,2.30
2018-03-31T11:54:41.027Z,1.57
2018-03-31T11:57:07.947Z,1.80
2018-03-31T11:59:35.193Z,1.90
2018-03-31T12:02:02.119Z,1.90
2018-03-31T12:04:29.039Z,2.00
2018-03-31T12:06:56.952Z,1.87
2018-03-31T12:09:24.096Z,2.00
2018-03-31T12:11:51.020Z,1.47
2018-03-31T12:14:18.013Z,1.90
2018-03-31T12:16:45.248Z,2.20
2018-03-31T12:19:12.383Z,1.77
2018-03-31T12:21:39.307Z,1.40
2018-03-31T12:24:06.259Z,1.50
2018-03-31T12:26:33.215Z,1.50
2018-03-31T12:29:00.435Z,1.63
2018-03-31T12:31:27.374Z,1.47
2018-03-31T12:33:55.279Z,1.50
2018-03-31T12:36:22.220Z,1.30
2018-03-31T12:38:49.139Z,1.30
2018-03-31T12:41:16.110Z,1.63
2018-03-31T12:43:43.035Z,1.80
2018-03-31T12:46:11.016Z,1.47
2018-03-31T12:48:38.179Z,1.40
2018-03-31T12:51:05.294Z,1.33
2018-03-31T12:53:32.463Z,1.30
2018-03-31T12:55:59.612Z,1.70
2018-03-31T12:58:26.791Z,1.63
2018-03-31T13:00:53.723Z,2.57
2018-03-31T13:03:20.763Z,1.80
2018-03-31T13:05:47.703Z,1.70
2018-03-31T13:08:14.744Z,2.20
2018-03-31T13:10:41.682Z,1.60
2018-03-31T13:13:08.744Z,1.87
2018-03-31T13:15:35.892Z,1.57
2018-03-31T13:18:02.816Z,1.90
2018-03-31T13:20:29.740Z,1.40
2018-03-31T13:22:57.635Z,1.90
2018-03-31T13:25:24.796Z,2.00
2018-03-31T13:27:51.952Z,2.45
2018-03-31T13:30:19.095Z,1.50
2018-03-31T13:32:46.230Z,1.60
2018-03-31T13:35:13.165Z,1.70
2018-03-31T13:37:40.087Z,1.60
2018-03-31T13:40:07.988Z,1.80
2018-03-31T13:42:34.929Z,1.83
2018-03-31T13:45:01.854Z,1.30
2018-03-31T13:47:29.642Z,1.50
2018-03-31T13:49:56.597Z,1.33
2018-03-31T13:52:23.737Z,2.70
2018-03-31T13:54:50.659Z,1.73
2018-03-31T13:57:17.587Z,1.57
2018-03-31T13:59:45.274Z,1.30
2018-03-31T14:02:12.337Z,1.10
2018-03-31T14:04:39.483Z,1.30
2018-03-31T14:07:06.635Z,1.17
2018-03-31T14:09:33.567Z,1.20
2018-03-31T14:12:00.620Z,1.20
2018-03-31T14:14:27.781Z,1.10
2018-03-31T14:16:54.923Z,1.87
2018-03-31T14:19:21.858Z,1.20
2018-03-31T14:21:48.782Z,1.10
2018-03-31T14:24:16.491Z,1.23
2018-03-31T14:26:43.427Z,1.40
2018-03-31T14:29:10.350Z,1.30
2018-03-31T14:31:37.270Z,1.80
2018-03-31T14:34:04.203Z,1.27
2018-03-31T14:36:32.116Z,1.33
2018-03-31T14:38:59.264Z,2.03
2018-03-31T14:41:26.272Z,1.53
2018-03-31T14:43:54.143Z,1.10
2018-03-31T14:46:21.319Z,1.07
2018-03-31T14:48:48.263Z,1.40
2018-03-31T14:51:15.314Z,1.23
2018-03-31T14:53:42.236Z,2.07
2018-03-31T14:56:09.308Z,1.30
2018-03-31T14:58:36.456Z,1.27
2018-03-31T15:01:04.261Z,1.10
2018-03-31T15:03:31.368Z,1.10
2018-03-31T15:05:58.519Z,1.30
2018-03-31T15:08:25.673Z,1.17
2018-03-31T15:10:52.611Z,1.20
2018-03-31T15:13:19.661Z,2.57
2018-03-31T15:15:46.591Z,4.47
2018-03-31T15:18:13.648Z,1.60
2018-03-31T15:20:40.797Z,1.30
2018-03-31T15:23:07.886Z,1.00
2018-03-31T15:25:35.652Z,1.37
2018-03-31T15:28:02.571Z,1.20
2018-03-31T15:30:29.704Z,1.20
2018-03-31T15:32:56.635Z,1.00
2018-03-31T15:35:23.550Z,0.90
2018-03-31T15:37:51.451Z,1.00
2018-03-31T15:40:18.378Z,1.10
2018-03-31T15:42:45.377Z,1.00
2018-03-31T15:45:12.288Z,1.40
2018-03-31T15:47:39.229Z,0.90
2018-03-31T15:50:06.284Z,1.00
2018-03-31T15:52:33.211Z,0.93
2018-03-31T15:55:00.271Z,1.00
2018-03-31T15:57:27.413Z,1.00
2018-03-31T15:59:54.334Z,1.60
2018-03-31T16:02:21.260Z,1.57
2018-03-31T16:04:49.167Z,2.23
2018-03-31T16:07:16.323Z,1.53
2018-03-31T16:09:43.320Z,1.27
2018-03-31T16:12:11.029Z,1.70
2018-03-31T16:14:38.075Z,1.90
2018-03-31T16:17:05.220Z,2.67
2018-03-31T16:19:32.159Z,1.80
2018-03-31T16:21:59.136Z,1.50
2018-03-31T16:24:26.266Z,2.37
2018-03-31T16:26:53.168Z,2.80
2018-03-31T16:29:20.184Z,2.10
2018-03-31T16:31:47.111Z,2.30
2018-03-31T16:34:14.356Z,1.70
2018-03-31T16:36:41.273Z,1.50
2018-03-31T16:39:08.337Z,1.60
2018-03-31T16:41:35.260Z,1.30
2018-03-31T16:44:02.224Z,1.33
2018-03-31T16:46:29.171Z,1.60
2018-03-31T16:48:56.116Z,1.60
2018-03-31T16:51:23.162Z,1.20
2018-03-31T16:53:50.520Z,1.73
2018-03-31T16:56:17.474Z,1.77
2018-03-31T16:58:44.624Z,1.10
2018-03-31T17:01:11.658Z,1.40
2018-03-31T17:03:38.588Z,1.13
2018-03-31T17:06:05.503Z,1.00
2018-03-31T17:08:32.587Z,1.20
2018-03-31T17:10:59.598Z,1.20
2018-03-31T17:13:26.586Z,2.17
2018-03-31T17:15:53.531Z,1.20
2018-03-31T17:18:20.576Z,1.30
2018-03-31T17:20:47.723Z,1.63
2018-03-31T17:23:14.871Z,1.20
2018-03-31T17:25:41.803Z,1.60
2018-03-31T17:28:08.744Z,2.00
2018-03-31T17:30:35.684Z,1.60
2018-03-31T17:33:02.873Z,1.73
2018-03-31T17:35:29.805Z,1.60
2018-03-31T17:37:56.724Z,3.20
2018-03-31T17:40:23.687Z,3.60
2018-03-31T17:42:50.852Z,2.70
2018-03-31T17:45:17.775Z,2.87
2018-03-31T17:47:44.779Z,3.00
2018-03-31T17:50:11.720Z,3.13
2018-03-31T17:52:38.899Z,3.20
2018-03-31T17:55:05.837Z,3.93
2018-03-31T17:57:32.807Z,3.73
2018-03-31T17:59:59.960Z,5.73
2018-03-31T18:02:26.874Z,6.67
2018-03-31T18:04:53.803Z,5.17
2018-03-31T18:07:21.506Z,4.33
2018-03-31T18:09:48.555Z,3.77
2018-03-31T18:12:15.466Z,4.80
2018-03-31T18:14:42.547Z,3.97
2018-03-31T18:17:09.490Z,5.30
2018-03-31T18:19:36.515Z,4.63
2018-03-31T18:22:03.456Z,5.53
2018-03-31T18:24:30.526Z,4.93
2018-03-31T18:26:57.471Z,3.87
2018-03-31T18:29:24.390Z,5.13
2018-03-31T18:31:51.419Z,3.83
2018-03-31T18:34:18.523Z,3.90
2018-03-31T18:36:45.455Z,4.67
2018-03-31T18:39:12.496Z,4.90
2018-03-31T18:41:39.496Z,5.07
2018-03-31T18:44:06.419Z,5.73
2018-03-31T18:46:33.357Z,4.20
2018-03-31T18:49:00.495Z,3.50
2018-03-31T18:51:27.592Z,4.03
2018-03-31T18:53:54.500Z,3.60
2018-03-31T18:56:21.481Z,4.03
2018-03-31T18:58:49.179Z,4.13
2018-03-31T19:01:16.227Z,4.47
2018-03-31T19:03:43.239Z,4.33
2018-03-31T19:06:10.947Z,4.80
2018-03-31T19:08:38.187Z,4.20
2018-03-31T19:11:05.117Z,4.37
2018-03-31T19:13:32.083Z,3.30
2018-03-31T19:15:59.024Z,4.77
2018-03-31T19:18:25.956Z,5.90
2018-03-31T19:20:52.884Z,5.60
2018-03-31T19:23:19.879Z,4.07
2018-03-31T19:25:47.105Z,5.57
2018-03-31T19:28:14.047Z,4.30
2018-03-31T19:30:49.704Z,4.37
2018-03-31T19:33:16.844Z,3.23
2018-03-31T19:35:49.452Z,2.83
2018-03-31T19:38:16.435Z,2.93
2018-03-31T19:40:43.367Z,3.10
2018-03-31T19:43:11.092Z,4.80
2018-03-31T19:45:38.024Z,4.77
2018-03-31T19:48:04.964Z,3.60
2018-03-31T19:50:31.955Z,4.27
2018-03-31T19:52:58.852Z,3.97
2018-03-31T19:55:25.859Z,3.73
2018-03-31T19:57:52.994Z,5.73
2018-03-31T20:00:20.035Z,6.83
2018-03-31T20:02:46.968Z,3.80
2018-03-31T20:05:13.907Z,3.43
2018-03-31T20:07:40.835Z,3.93
2018-03-31T20:10:07.780Z,4.30
2018-03-31T20:12:34.717Z,3.97
2018-03-31T20:15:01.758Z,4.00
2018-03-31T20:17:28.697Z,4.17
2018-03-31T20:19:55.643Z,4.17
2018-03-31T20:22:22.566Z,3.37
2018-03-31T20:24:49.504Z,3.93
2018-03-31T20:27:16.436Z,3.83
2018-03-31T20:29:44.140Z,3.60
2018-03-31T20:32:11.091Z,3.20
2018-03-31T20:34:38.816Z,3.67
2018-03-31T20:37:05.744Z,4.17
2018-03-31T20:39:32.693Z,3.57
2018-03-31T20:41:59.610Z,3.70
2018-03-31T20:44:26.531Z,4.20
2018-03-31T20:46:53.477Z,3.83
2018-03-31T20:49:20.620Z,3.50
2018-03-31T20:51:47.763Z,3.90
2018-03-31T20:54:14.792Z,3.17
2018-03-31T20:56:41.728Z,2.43
2018-03-31T20:59:08.659Z,2.83
2018-03-31T21:01:35.742Z,2.67
2018-03-31T21:04:02.663Z,2.33
2018-03-31T21:06:29.939Z,3.07
2018-03-31T21:08:56.936Z,2.40
2018-03-31T21:11:24.239Z,2.40
2018-03-31T21:13:51.235Z,2.20
2018-03-31T21:16:18.329Z,2.20
2018-03-31T21:18:45.260Z,2.60
2018-03-31T21:21:12.201Z,2.13
2018-03-31T21:23:39.123Z,2.30
2018-03-31T21:26:07.235Z,2.37
2018-03-31T21:28:34.160Z,2.37
2018-03-31T21:31:01.106Z,3.27
2018-03-31T21:33:28.067Z,3.60
2018-03-31T21:35:55.212Z,3.53
2018-03-31T21:38:22.146Z,3.00
2018-03-31T21:40:49.199Z,3.30
2018-03-31T21:43:16.145Z,2.70
2018-03-31T21:45:43.197Z,2.70
2018-03-31T21:48:10.140Z,2.60
2018-03-31T21:50:37.093Z,2.40
2018-03-31T21:53:04.004Z,2.30
2018-03-31T21:55:30.926Z,2.97
2018-03-31T21:57:58.013Z,2.70
2018-03-31T22:00:24.965Z,3.13
2018-03-31T22:02:52.032Z,2.50
2018-03-31T22:05:18.951Z,3.33
2018-03-31T22:07:45.878Z,3.37
2018-03-31T22:10:12.856Z,3.60
2018-03-31T22:12:39.994Z,3.40
2018-03-31T22:15:12.412Z,2.10
2018-03-31T22:17:39.374Z,2.80
2018-03-31T22:20:07.173Z,2.00
2018-03-31T22:22:34.095Z,2.90
2018-03-31T22:25:01.272Z,2.17
2018-03-31T22:27:28.351Z,2.10
2018-03-31T22:29:55.364Z,2.20
2018-03-31T22:32:22.410Z,1.90
2018-03-31T22:34:49.339Z,1.60
2018-03-31T22:37:16.416Z,2.70
2018-03-31T22:39:43.551Z,2.57
2018-03-31T22:42:10.494Z,2.00
2018-03-31T22:44:37.422Z,2.13
2018-03-31T22:47:04.379Z,2.10
2018-03-31T22:49:31.315Z,2.03
2018-03-31T22:51:58.372Z,2.07
2018-03-31T22:54:25.314Z,3.30
2018-03-31T22:56:52.372Z,2.63
2018-03-31T22:59:19.310Z,2.13
2018-03-31T23:01:46.355Z,2.30
2018-03-31T23:04:13.506Z,2.40
2018-03-31T23:06:40.509Z,1.80
2018-03-31T23:09:07.519Z,2.33
2018-03-31T23:11:34.642Z,2.20
2018-03-31T23:14:01.789Z,2.10
2018-03-31T23:16:28.711Z,2.13
2018-03-31T23:18:55.630Z,2.47
2018-03-31T23:21:23.341Z,2.47
2018-03-31T23:23:50.383Z,2.17
2018-03-31T23:26:17.542Z,2.40
2018-03-31T23:28:44.469Z,2.50
2018-03-31T23:31:11.531Z,2.87
2018-03-31T23:33:38.676Z,2.70
2018-03-31T23:36:05.612Z,3.00
2018-03-31T23:38:32.542Z,3.33
2018-03-31T23:40:59.475Z,3.20
2018-03-31T23:43:26.662Z,3.00
2018-03-31T23:45:53.795Z,2.73
2018-03-31T23:48:20.714Z,2.40
2018-03-31T23:50:47.804Z,2.90
2018-03-31T23:53:14.733Z,2.33
2018-03-31T23:55:41.795Z,2.60
2018-03-31T23:58:08.728Z,2.80
